sensor_id;sensor_type;location;lat;lon;timestamp;P1;durP1;ratioP1;P2;durP2;ratioP2
35961;SDS011;22044;48.298;10.008;2022-11-18T00:01:57;1.60;;;1.00;;
35961;SDS011;22044;48.298;10.008;2022-11-18T00:04:42;1.00;;;0.90;;
35961;SDS011;22044;48.298;10.008;2022-11-18T00:07:28;2.80;;;1.20;;
35961;SDS011;22044;48.298;10.008;2022-11-18T00:10:14;1.20;;;1.00;;
35961;SDS011;22044;48.298;10.008;2022-11-18T00:13:00;1.03;;;0.83;;
35961;SDS011;22044;48.298;10.008;2022-11-18T00:16:00;1.37;;;1.00;;
35961;SDS011;22044;48.298;10.008;2022-11-18T00:18:47;1.33;;;0.90;;
35961;SDS011;22044;48.298;10.008;2022-11-18T00:21:33;1.30;;;1.20;;
35961;SDS011;22044;48.298;10.008;2022-11-18T00:24:19;2.83;;;1.20;;
35961;SDS011;22044;48.298;10.008;2022-11-18T00:27:05;3.17;;;1.40;;
35961;SDS011;22044;48.298;10.008;2022-11-18T00:29:51;2.23;;;1.43;;
35961;SDS011;22044;48.298;10.008;2022-11-18T00:32:36;1.40;;;1.10;;
35961;SDS011;22044;48.298;10.008;2022-11-18T00:35:24;1.40;;;0.90;;
35961;SDS011;22044;48.298;10.008;2022-11-18T00:38:10;1.70;;;0.90;;
35961;SDS011;22044;48.298;10.008;2022-11-18T00:40:59;3.47;;;0.70;;
35961;SDS011;22044;48.298;10.008;2022-11-18T00:43:45;1.17;;;0.80;;
35961;SDS011;22044;48.298;10.008;2022-11-18T00:46:29;1.43;;;1.00;;
35961;SDS011;22044;48.298;10.008;2022-11-18T00:49:15;1.40;;;0.90;;
35961;SDS011;22044;48.298;10.008;2022-11-18T00:52:02;1.07;;;0.90;;
35961;SDS011;22044;48.298;10.008;2022-11-18T00:54:48;1.10;;;1.00;;
35961;SDS011;22044;48.298;10.008;2022-11-18T00:57:33;1.20;;;1.10;;
35961;SDS011;22044;48.298;10.008;2022-11-18T01:00:19;0.80;;;0.80;;
35961;SDS011;22044;48.298;10.008;2022-11-18T01:03:05;1.00;;;0.90;;
35961;SDS011;22044;48.298;10.008;2022-11-18T01:05:50;1.77;;;0.90;;
35961;SDS011;22044;48.298;10.008;2022-11-18T01:08:37;1.00;;;0.80;;
35961;SDS011;22044;48.298;10.008;2022-11-18T01:11:23;1.10;;;1.00;;
35961;SDS011;22044;48.298;10.008;2022-11-18T01:14:26;2.87;;;1.00;;
35961;SDS011;22044;48.298;10.008;2022-11-18T01:17:12;2.40;;;1.00;;
35961;SDS011;22044;48.298;10.008;2022-11-18T01:19:59;2.50;;;1.17;;
35961;SDS011;22044;48.298;10.008;2022-11-18T01:22:44;1.70;;;1.30;;
35961;SDS011;22044;48.298;10.008;2022-11-18T01:25:31;2.70;;;1.10;;
35961;SDS011;22044;48.298;10.008;2022-11-18T01:28:18;1.90;;;1.20;;
35961;SDS011;22044;48.298;10.008;2022-11-18T01:31:04;1.80;;;1.50;;
35961;SDS011;22044;48.298;10.008;2022-11-18T01:33:52;2.73;;;1.40;;
35961;SDS011;22044;48.298;10.008;2022-11-18T01:36:37;2.07;;;1.33;;
35961;SDS011;22044;48.298;10.008;2022-11-18T01:39:23;3.77;;;1.67;;
35961;SDS011;22044;48.298;10.008;2022-11-18T01:42:12;1.70;;;1.33;;
35961;SDS011;22044;48.298;10.008;2022-11-18T01:45:00;2.70;;;1.53;;
35961;SDS011;22044;48.298;10.008;2022-11-18T01:47:54;1.70;;;1.60;;
35961;SDS011;22044;48.298;10.008;2022-11-18T01:50:47;2.10;;;1.43;;
35961;SDS011;22044;48.298;10.008;2022-11-18T01:53:37;2.67;;;1.93;;
35961;SDS011;22044;48.298;10.008;2022-11-18T01:56:27;2.00;;;1.80;;
35961;SDS011;22044;48.298;10.008;2022-11-18T01:59:21;2.37;;;1.90;;
35961;SDS011;22044;48.298;10.008;2022-11-18T02:02:09;3.03;;;1.60;;
35961;SDS011;22044;48.298;10.008;2022-11-18T02:04:57;3.43;;;1.90;;
35961;SDS011;22044;48.298;10.008;2022-11-18T02:07:44;3.37;;;2.13;;
35961;SDS011;22044;48.298;10.008;2022-11-18T02:10:31;3.40;;;1.80;;
35961;SDS011;22044;48.298;10.008;2022-11-18T02:13:16;2.50;;;1.77;;
35961;SDS011;22044;48.298;10.008;2022-11-18T02:16:04;1.93;;;1.80;;
35961;SDS011;22044;48.298;10.008;2022-11-18T02:18:57;3.37;;;1.80;;
35961;SDS011;22044;48.298;10.008;2022-11-18T02:21:47;1.90;;;1.70;;
35961;SDS011;22044;48.298;10.008;2022-11-18T02:24:40;2.23;;;1.80;;
35961;SDS011;22044;48.298;10.008;2022-11-18T02:27:50;3.17;;;1.97;;
35961;SDS011;22044;48.298;10.008;2022-11-18T02:30:57;2.00;;;1.80;;
35961;SDS011;22044;48.298;10.008;2022-11-18T02:33:48;1.50;;;1.40;;
35961;SDS011;22044;48.298;10.008;2022-11-18T02:36:39;2.77;;;1.60;;
35961;SDS011;22044;48.298;10.008;2022-11-18T02:39:31;3.10;;;1.80;;
35961;SDS011;22044;48.298;10.008;2022-11-18T02:42:21;1.67;;;1.57;;
35961;SDS011;22044;48.298;10.008;2022-11-18T02:45:09;1.40;;;1.30;;
35961;SDS011;22044;48.298;10.008;2022-11-18T02:48:01;1.70;;;1.57;;
35961;SDS011;22044;48.298;10.008;2022-11-18T02:50:51;2.60;;;1.77;;
35961;SDS011;22044;48.298;10.008;2022-11-18T02:53:38;3.10;;;1.67;;
35961;SDS011;22044;48.298;10.008;2022-11-18T02:56:26;1.40;;;1.30;;
35961;SDS011;22044;48.298;10.008;2022-11-18T02:59:16;1.30;;;1.20;;
35961;SDS011;22044;48.298;10.008;2022-11-18T03:02:02;0.97;;;0.90;;
35961;SDS011;22044;48.298;10.008;2022-11-18T03:04:50;3.30;;;1.20;;
35961;SDS011;22044;48.298;10.008;2022-11-18T03:07:39;0.80;;;0.80;;
35961;SDS011;22044;48.298;10.008;2022-11-18T03:10:29;1.23;;;0.90;;
35961;SDS011;22044;48.298;10.008;2022-11-18T03:13:22;1.63;;;0.90;;
35961;SDS011;22044;48.298;10.008;2022-11-18T03:16:11;1.10;;;1.00;;
35961;SDS011;22044;48.298;10.008;2022-11-18T03:19:04;2.40;;;1.47;;
35961;SDS011;22044;48.298;10.008;2022-11-18T03:22:01;1.03;;;0.93;;
35961;SDS011;22044;48.298;10.008;2022-11-18T03:24:54;1.20;;;1.00;;
35961;SDS011;22044;48.298;10.008;2022-11-18T03:27:45;1.07;;;0.93;;
35961;SDS011;22044;48.298;10.008;2022-11-18T03:30:39;1.10;;;1.00;;
35961;SDS011;22044;48.298;10.008;2022-11-18T03:33:30;0.70;;;0.70;;
35961;SDS011;22044;48.298;10.008;2022-11-18T03:36:19;0.83;;;0.80;;
35961;SDS011;22044;48.298;10.008;2022-11-18T03:39:10;1.40;;;0.97;;
35961;SDS011;22044;48.298;10.008;2022-11-18T03:42:02;1.27;;;1.00;;
35961;SDS011;22044;48.298;10.008;2022-11-18T03:44:51;0.80;;;0.80;;
35961;SDS011;22044;48.298;10.008;2022-11-18T03:47:41;0.87;;;0.87;;
35961;SDS011;22044;48.298;10.008;2022-11-18T03:50:31;2.33;;;1.00;;
35961;SDS011;22044;48.298;10.008;2022-11-18T03:53:19;0.80;;;0.80;;
35961;SDS011;22044;48.298;10.008;2022-11-18T03:56:11;0.87;;;0.87;;
35961;SDS011;22044;48.298;10.008;2022-11-18T03:59:01;1.77;;;0.90;;
35961;SDS011;22044;48.298;10.008;2022-11-18T04:01:50;1.00;;;1.00;;
35961;SDS011;22044;48.298;10.008;2022-11-18T04:04:38;1.43;;;0.90;;
35961;SDS011;22044;48.298;10.008;2022-11-18T04:07:26;2.60;;;0.90;;
35961;SDS011;22044;48.298;10.008;2022-11-18T04:10:16;1.33;;;0.90;;
35961;SDS011;22044;48.298;10.008;2022-11-18T04:13:06;1.40;;;0.90;;
35961;SDS011;22044;48.298;10.008;2022-11-18T04:15:56;2.40;;;0.70;;
35961;SDS011;22044;48.298;10.008;2022-11-18T04:18:41;1.40;;;0.90;;
35961;SDS011;22044;48.298;10.008;2022-11-18T04:21:27;0.70;;;0.70;;
35961;SDS011;22044;48.298;10.008;2022-11-18T04:24:12;0.63;;;0.63;;
35961;SDS011;22044;48.298;10.008;2022-11-18T04:26:58;1.47;;;0.97;;
35961;SDS011;22044;48.298;10.008;2022-11-18T04:29:46;0.77;;;0.70;;
35961;SDS011;22044;48.298;10.008;2022-11-18T04:32:32;2.30;;;0.90;;
35961;SDS011;22044;48.298;10.008;2022-11-18T04:35:18;1.10;;;0.80;;
35961;SDS011;22044;48.298;10.008;2022-11-18T04:38:03;0.80;;;0.80;;
35961;SDS011;22044;48.298;10.008;2022-11-18T04:40:49;0.80;;;0.80;;
35961;SDS011;22044;48.298;10.008;2022-11-18T04:43:35;2.93;;;0.77;;
35961;SDS011;22044;48.298;10.008;2022-11-18T04:46:22;1.00;;;0.80;;
35961;SDS011;22044;48.298;10.008;2022-11-18T04:49:08;0.73;;;0.73;;
35961;SDS011;22044;48.298;10.008;2022-11-18T04:51:54;0.83;;;0.83;;
35961;SDS011;22044;48.298;10.008;2022-11-18T04:54:41;2.00;;;0.90;;
35961;SDS011;22044;48.298;10.008;2022-11-18T04:57:26;1.63;;;0.80;;
35961;SDS011;22044;48.298;10.008;2022-11-18T05:00:12;0.73;;;0.60;;
35961;SDS011;22044;48.298;10.008;2022-11-18T05:02:59;0.90;;;0.60;;
35961;SDS011;22044;48.298;10.008;2022-11-18T05:05:45;0.60;;;0.60;;
35961;SDS011;22044;48.298;10.008;2022-11-18T05:08:30;1.23;;;0.67;;
35961;SDS011;22044;48.298;10.008;2022-11-18T05:11:16;0.93;;;0.60;;
35961;SDS011;22044;48.298;10.008;2022-11-18T05:14:19;2.60;;;1.00;;
35961;SDS011;22044;48.298;10.008;2022-11-18T05:17:05;0.87;;;0.70;;
35961;SDS011;22044;48.298;10.008;2022-11-18T05:19:53;1.37;;;0.70;;
35961;SDS011;22044;48.298;10.008;2022-11-18T05:22:39;1.10;;;1.00;;
35961;SDS011;22044;48.298;10.008;2022-11-18T05:25:25;1.20;;;0.80;;
35961;SDS011;22044;48.298;10.008;2022-11-18T05:28:11;2.07;;;0.90;;
35961;SDS011;22044;48.298;10.008;2022-11-18T05:30:56;0.50;;;0.50;;
35961;SDS011;22044;48.298;10.008;2022-11-18T05:33:42;0.50;;;0.50;;
35961;SDS011;22044;48.298;10.008;2022-11-18T05:36:29;0.60;;;0.60;;
35961;SDS011;22044;48.298;10.008;2022-11-18T05:39:15;0.77;;;0.60;;
35961;SDS011;22044;48.298;10.008;2022-11-18T05:42:01;1.60;;;0.80;;
35961;SDS011;22044;48.298;10.008;2022-11-18T05:45:05;0.87;;;0.70;;
35961;SDS011;22044;48.298;10.008;2022-11-18T05:47:51;1.63;;;0.80;;
35961;SDS011;22044;48.298;10.008;2022-11-18T05:50:50;0.47;;;0.47;;
35961;SDS011;22044;48.298;10.008;2022-11-18T05:53:39;0.88;;;0.70;;
35961;SDS011;22044;48.298;10.008;2022-11-18T05:56:26;2.00;;;0.70;;
35961;SDS011;22044;48.298;10.008;2022-11-18T05:59:13;1.87;;;1.20;;
35961;SDS011;22044;48.298;10.008;2022-11-18T06:01:59;2.47;;;1.00;;
35961;SDS011;22044;48.298;10.008;2022-11-18T06:04:47;1.73;;;0.90;;
35961;SDS011;22044;48.298;10.008;2022-11-18T06:07:37;3.57;;;1.40;;
35961;SDS011;22044;48.298;10.008;2022-11-18T06:10:28;2.50;;;1.57;;
35961;SDS011;22044;48.298;10.008;2022-11-18T06:13:17;1.90;;;1.67;;
35961;SDS011;22044;48.298;10.008;2022-11-18T06:16:07;3.80;;;2.20;;
35961;SDS011;22044;48.298;10.008;2022-11-18T06:18:53;3.03;;;2.20;;
35961;SDS011;22044;48.298;10.008;2022-11-18T06:21:39;2.93;;;2.10;;
35961;SDS011;22044;48.298;10.008;2022-11-18T06:24:25;3.40;;;2.00;;
35961;SDS011;22044;48.298;10.008;2022-11-18T06:27:12;6.27;;;3.20;;
35961;SDS011;22044;48.298;10.008;2022-11-18T06:29:58;3.13;;;2.10;;
35961;SDS011;22044;48.298;10.008;2022-11-18T06:32:44;5.23;;;2.50;;
35961;SDS011;22044;48.298;10.008;2022-11-18T06:35:29;7.17;;;4.30;;
35961;SDS011;22044;48.298;10.008;2022-11-18T06:38:15;9.23;;;4.47;;
35961;SDS011;22044;48.298;10.008;2022-11-18T06:41:00;14.50;;;7.83;;
35961;SDS011;22044;48.298;10.008;2022-11-18T06:43:47;5.87;;;3.77;;
35961;SDS011;22044;48.298;10.008;2022-11-18T06:46:33;5.23;;;3.03;;
35961;SDS011;22044;48.298;10.008;2022-11-18T06:49:36;2.43;;;2.23;;
35961;SDS011;22044;48.298;10.008;2022-11-18T06:52:22;2.77;;;1.30;;
35961;SDS011;22044;48.298;10.008;2022-11-18T06:55:08;1.50;;;1.40;;
35961;SDS011;22044;48.298;10.008;2022-11-18T06:57:54;1.70;;;1.27;;
35961;SDS011;22044;48.298;10.008;2022-11-18T07:00:41;1.47;;;0.90;;
35961;SDS011;22044;48.298;10.008;2022-11-18T07:03:27;0.80;;;0.80;;
35961;SDS011;22044;48.298;10.008;2022-11-18T07:06:13;0.60;;;0.60;;
35961;SDS011;22044;48.298;10.008;2022-11-18T07:09:02;0.73;;;0.73;;
35961;SDS011;22044;48.298;10.008;2022-11-18T07:11:48;0.63;;;0.60;;
35961;SDS011;22044;48.298;10.008;2022-11-18T07:14:34;1.90;;;0.90;;
35961;SDS011;22044;48.298;10.008;2022-11-18T07:17:21;0.73;;;0.73;;
35961;SDS011;22044;48.298;10.008;2022-11-18T07:20:07;0.77;;;0.77;;
35961;SDS011;22044;48.298;10.008;2022-11-18T07:22:53;1.10;;;0.70;;
35961;SDS011;22044;48.298;10.008;2022-11-18T07:25:39;0.87;;;0.77;;
35961;SDS011;22044;48.298;10.008;2022-11-18T07:28:24;0.60;;;0.60;;
35961;SDS011;22044;48.298;10.008;2022-11-18T07:31:11;1.17;;;0.93;;
35961;SDS011;22044;48.298;10.008;2022-11-18T07:33:59;1.23;;;0.90;;
35961;SDS011;22044;48.298;10.008;2022-11-18T07:36:45;1.60;;;1.13;;
35961;SDS011;22044;48.298;10.008;2022-11-18T07:39:30;0.90;;;0.90;;
35961;SDS011;22044;48.298;10.008;2022-11-18T07:42:16;0.80;;;0.80;;
35961;SDS011;22044;48.298;10.008;2022-11-18T07:45:01;1.23;;;1.10;;
35961;SDS011;22044;48.298;10.008;2022-11-18T07:47:47;1.20;;;1.10;;
35961;SDS011;22044;48.298;10.008;2022-11-18T07:50:34;1.10;;;1.00;;
35961;SDS011;22044;48.298;10.008;2022-11-18T07:53:20;1.50;;;1.30;;
35961;SDS011;22044;48.298;10.008;2022-11-18T07:56:06;1.40;;;1.30;;
35961;SDS011;22044;48.298;10.008;2022-11-18T07:58:53;1.70;;;1.60;;
35961;SDS011;22044;48.298;10.008;2022-11-18T08:01:40;3.40;;;2.00;;
35961;SDS011;22044;48.298;10.008;2022-11-18T08:04:25;1.97;;;1.50;;
35961;SDS011;22044;48.298;10.008;2022-11-18T08:07:12;1.80;;;1.70;;
35961;SDS011;22044;48.298;10.008;2022-11-18T08:09:58;2.90;;;1.80;;
35961;SDS011;22044;48.298;10.008;2022-11-18T08:12:46;1.80;;;1.70;;
35961;SDS011;22044;48.298;10.008;2022-11-18T08:15:31;2.07;;;1.97;;
35961;SDS011;22044;48.298;10.008;2022-11-18T08:18:17;1.77;;;1.67;;
35961;SDS011;22044;48.298;10.008;2022-11-18T08:21:03;1.83;;;1.73;;
35961;SDS011;22044;48.298;10.008;2022-11-18T08:23:51;2.30;;;1.80;;
35961;SDS011;22044;48.298;10.008;2022-11-18T08:26:38;2.03;;;1.70;;
35961;SDS011;22044;48.298;10.008;2022-11-18T08:29:23;1.87;;;1.50;;
35961;SDS011;22044;48.298;10.008;2022-11-18T08:32:09;1.80;;;1.70;;
35961;SDS011;22044;48.298;10.008;2022-11-18T08:34:54;1.70;;;1.60;;
35961;SDS011;22044;48.298;10.008;2022-11-18T08:37:40;3.60;;;2.43;;
35961;SDS011;22044;48.298;10.008;2022-11-18T08:40:28;4.60;;;2.10;;
35961;SDS011;22044;48.298;10.008;2022-11-18T08:43:14;27.00;;;3.90;;
35961;SDS011;22044;48.298;10.008;2022-11-18T08:45:59;19.43;;;3.43;;
35961;SDS011;22044;48.298;10.008;2022-11-18T08:48:45;155.70;;;12.33;;
35961;SDS011;22044;48.298;10.008;2022-11-18T08:51:31;37.77;;;4.37;;
35961;SDS011;22044;48.298;10.008;2022-11-18T08:54:16;29.87;;;3.93;;
35961;SDS011;22044;48.298;10.008;2022-11-18T08:57:03;4.47;;;1.70;;
35961;SDS011;22044;48.298;10.008;2022-11-18T08:59:49;8.87;;;1.70;;
35961;SDS011;22044;48.298;10.008;2022-11-18T09:02:34;14.53;;;2.07;;
35961;SDS011;22044;48.298;10.008;2022-11-18T09:05:20;15.63;;;2.50;;
35961;SDS011;22044;48.298;10.008;2022-11-18T09:08:05;3.47;;;1.30;;
35961;SDS011;22044;48.298;10.008;2022-11-18T09:10:51;2.13;;;1.80;;
35961;SDS011;22044;48.298;10.008;2022-11-18T09:13:38;4.93;;;2.60;;
35961;SDS011;22044;48.298;10.008;2022-11-18T09:16:24;2.20;;;2.00;;
35961;SDS011;22044;48.298;10.008;2022-11-18T09:19:13;3.53;;;2.07;;
35961;SDS011;22044;48.298;10.008;2022-11-18T09:21:59;4.20;;;1.90;;
35961;SDS011;22044;48.298;10.008;2022-11-18T09:24:45;3.70;;;2.50;;
35961;SDS011;22044;48.298;10.008;2022-11-18T09:27:31;3.33;;;2.27;;
35961;SDS011;22044;48.298;10.008;2022-11-18T09:30:18;3.63;;;2.80;;
35961;SDS011;22044;48.298;10.008;2022-11-18T09:33:03;2.20;;;2.00;;
35961;SDS011;22044;48.298;10.008;2022-11-18T09:35:49;1.77;;;1.50;;
35961;SDS011;22044;48.298;10.008;2022-11-18T09:38:35;5.23;;;1.30;;
35961;SDS011;22044;48.298;10.008;2022-11-18T09:41:38;3.57;;;1.20;;
35961;SDS011;22044;48.298;10.008;2022-11-18T09:44:34;0.80;;;0.80;;
35961;SDS011;22044;48.298;10.008;2022-11-18T09:47:32;1.50;;;1.00;;
35961;SDS011;22044;48.298;10.008;2022-11-18T09:50:19;1.63;;;0.90;;
35961;SDS011;22044;48.298;10.008;2022-11-18T09:53:09;1.20;;;1.00;;
35961;SDS011;22044;48.298;10.008;2022-11-18T09:56:02;1.27;;;0.90;;
35961;SDS011;22044;48.298;10.008;2022-11-18T09:58:48;1.93;;;1.10;;
35961;SDS011;22044;48.298;10.008;2022-11-18T10:01:34;1.23;;;1.10;;
35961;SDS011;22044;48.298;10.008;2022-11-18T10:04:21;1.10;;;1.00;;
35961;SDS011;22044;48.298;10.008;2022-11-18T10:07:09;1.30;;;1.20;;
35961;SDS011;22044;48.298;10.008;2022-11-18T10:10:02;1.57;;;1.10;;
35961;SDS011;22044;48.298;10.008;2022-11-18T10:12:59;2.63;;;1.20;;
35961;SDS011;22044;48.298;10.008;2022-11-18T10:15:56;1.40;;;1.30;;
35961;SDS011;22044;48.298;10.008;2022-11-18T10:18:49;1.53;;;1.23;;
35961;SDS011;22044;48.298;10.008;2022-11-18T10:21:43;1.50;;;1.13;;
35961;SDS011;22044;48.298;10.008;2022-11-18T10:24:36;1.77;;;1.10;;
35961;SDS011;22044;48.298;10.008;2022-11-18T10:27:29;1.57;;;1.30;;
35961;SDS011;22044;48.298;10.008;2022-11-18T10:30:19;1.10;;;1.00;;
35961;SDS011;22044;48.298;10.008;2022-11-18T10:33:16;1.97;;;1.27;;
35961;SDS011;22044;48.298;10.008;2022-11-18T10:36:10;1.27;;;1.10;;
35961;SDS011;22044;48.298;10.008;2022-11-18T10:39:12;1.37;;;0.90;;
35961;SDS011;22044;48.298;10.008;2022-11-18T10:42:02;1.03;;;0.60;;
35961;SDS011;22044;48.298;10.008;2022-11-18T10:44:49;1.03;;;0.77;;
35961;SDS011;22044;48.298;10.008;2022-11-18T10:47:35;0.80;;;0.80;;
35961;SDS011;22044;48.298;10.008;2022-11-18T10:50:28;0.70;;;0.70;;
35961;SDS011;22044;48.298;10.008;2022-11-18T10:53:28;0.80;;;0.80;;
35961;SDS011;22044;48.298;10.008;2022-11-18T10:56:16;0.83;;;0.77;;
35961;SDS011;22044;48.298;10.008;2022-11-18T10:59:02;0.87;;;0.80;;
35961;SDS011;22044;48.298;10.008;2022-11-18T11:01:55;0.60;;;0.60;;
35961;SDS011;22044;48.298;10.008;2022-11-18T11:04:43;0.70;;;0.70;;
35961;SDS011;22044;48.298;10.008;2022-11-18T11:07:30;0.80;;;0.80;;
35961;SDS011;22044;48.298;10.008;2022-11-18T11:10:18;1.00;;;0.80;;
35961;SDS011;22044;48.298;10.008;2022-11-18T11:13:09;0.80;;;0.60;;
35961;SDS011;22044;48.298;10.008;2022-11-18T11:16:00;0.97;;;0.50;;
35961;SDS011;22044;48.298;10.008;2022-11-18T11:18:49;0.47;;;0.47;;
35961;SDS011;22044;48.298;10.008;2022-11-18T11:21:38;0.60;;;0.60;;
35961;SDS011;22044;48.298;10.008;2022-11-18T11:24:25;1.83;;;1.10;;
35961;SDS011;22044;48.298;10.008;2022-11-18T11:27:19;1.83;;;1.20;;
35961;SDS011;22044;48.298;10.008;2022-11-18T11:30:18;1.77;;;0.90;;
35961;SDS011;22044;48.298;10.008;2022-11-18T11:33:08;0.70;;;0.70;;
35961;SDS011;22044;48.298;10.008;2022-11-18T11:36:21;0.90;;;0.70;;
35961;SDS011;22044;48.298;10.008;2022-11-18T11:39:33;3.00;;;0.60;;
35961;SDS011;22044;48.298;10.008;2022-11-18T11:42:34;1.83;;;0.60;;
35961;SDS011;22044;48.298;10.008;2022-11-18T11:45:29;0.50;;;0.50;;
35961;SDS011;22044;48.298;10.008;2022-11-18T11:48:23;0.60;;;0.60;;
35961;SDS011;22044;48.298;10.008;2022-11-18T11:51:21;0.40;;;0.40;;
35961;SDS011;22044;48.298;10.008;2022-11-18T11:54:18;2.50;;;1.53;;
35961;SDS011;22044;48.298;10.008;2022-11-18T11:57:26;0.70;;;0.70;;
35961;SDS011;22044;48.298;10.008;2022-11-18T12:00:23;1.33;;;0.83;;
35961;SDS011;22044;48.298;10.008;2022-11-18T12:03:17;0.80;;;0.80;;
35961;SDS011;22044;48.298;10.008;2022-11-18T12:06:20;0.97;;;0.87;;
35961;SDS011;22044;48.298;10.008;2022-11-18T12:09:08;0.93;;;0.90;;
35961;SDS011;22044;48.298;10.008;2022-11-18T12:11:59;1.43;;;1.00;;
35961;SDS011;22044;48.298;10.008;2022-11-18T12:15:16;2.07;;;0.80;;
35961;SDS011;22044;48.298;10.008;2022-11-18T12:18:10;1.87;;;0.90;;
35961;SDS011;22044;48.298;10.008;2022-11-18T12:21:02;1.27;;;0.80;;
35961;SDS011;22044;48.298;10.008;2022-11-18T12:23:48;1.27;;;0.70;;
35961;SDS011;22044;48.298;10.008;2022-11-18T12:27:14;3.03;;;0.90;;
35961;SDS011;22044;48.298;10.008;2022-11-18T12:30:41;0.80;;;0.80;;
35961;SDS011;22044;48.298;10.008;2022-11-18T12:33:27;1.03;;;0.70;;
35961;SDS011;22044;48.298;10.008;2022-11-18T12:36:24;0.80;;;0.80;;
35961;SDS011;22044;48.298;10.008;2022-11-18T12:42:42;1.07;;;0.97;;
35961;SDS011;22044;48.298;10.008;2022-11-18T12:48:40;2.13;;;1.00;;
35961;SDS011;22044;48.298;10.008;2022-11-18T12:54:35;1.27;;;0.90;;
35961;SDS011;22044;48.298;10.008;2022-11-18T12:57:23;1.07;;;0.90;;
35961;SDS011;22044;48.298;10.008;2022-11-18T13:00:17;1.10;;;0.93;;
35961;SDS011;22044;48.298;10.008;2022-11-18T13:03:12;1.97;;;1.00;;
35961;SDS011;22044;48.298;10.008;2022-11-18T13:06:11;0.80;;;0.80;;
35961;SDS011;22044;48.298;10.008;2022-11-18T13:09:06;1.17;;;1.07;;
35961;SDS011;22044;48.298;10.008;2022-11-18T13:12:00;2.73;;;1.50;;
35961;SDS011;22044;48.298;10.008;2022-11-18T13:14:47;2.57;;;0.80;;
35961;SDS011;22044;48.298;10.008;2022-11-18T13:17:51;0.63;;;0.63;;
35961;SDS011;22044;48.298;10.008;2022-11-18T13:20:54;2.27;;;0.80;;
35961;SDS011;22044;48.298;10.008;2022-11-18T13:23:41;0.70;;;0.67;;
35961;SDS011;22044;48.298;10.008;2022-11-18T13:26:37;1.00;;;0.80;;
35961;SDS011;22044;48.298;10.008;2022-11-18T13:29:27;0.90;;;0.80;;
35961;SDS011;22044;48.298;10.008;2022-11-18T13:32:21;1.07;;;0.90;;
35961;SDS011;22044;48.298;10.008;2022-11-18T13:35:10;2.53;;;1.20;;
35961;SDS011;22044;48.298;10.008;2022-11-18T13:37:58;2.77;;;1.10;;
35961;SDS011;22044;48.298;10.008;2022-11-18T13:40:46;0.70;;;0.70;;
35961;SDS011;22044;48.298;10.008;2022-11-18T13:43:48;0.93;;;0.80;;
35961;SDS011;22044;48.298;10.008;2022-11-18T13:46:35;1.03;;;0.90;;
35961;SDS011;22044;48.298;10.008;2022-11-18T13:49:22;1.70;;;1.00;;
35961;SDS011;22044;48.298;10.008;2022-11-18T13:52:18;2.40;;;0.90;;
35961;SDS011;22044;48.298;10.008;2022-11-18T13:55:07;1.13;;;0.70;;
35961;SDS011;22044;48.298;10.008;2022-11-18T13:58:00;1.03;;;0.70;;
35961;SDS011;22044;48.298;10.008;2022-11-18T14:00:54;0.80;;;0.80;;
35961;SDS011;22044;48.298;10.008;2022-11-18T14:03:47;1.33;;;0.70;;
35961;SDS011;22044;48.298;10.008;2022-11-18T14:06:36;1.10;;;0.70;;
35961;SDS011;22044;48.298;10.008;2022-11-18T14:09:23;1.33;;;0.73;;
35961;SDS011;22044;48.298;10.008;2022-11-18T14:12:20;0.63;;;0.60;;
35961;SDS011;22044;48.298;10.008;2022-11-18T14:15:11;0.63;;;0.63;;
35961;SDS011;22044;48.298;10.008;2022-11-18T14:18:00;0.60;;;0.60;;
35961;SDS011;22044;48.298;10.008;2022-11-18T14:20:50;0.60;;;0.60;;
35961;SDS011;22044;48.298;10.008;2022-11-18T14:23:40;2.40;;;1.50;;
35961;SDS011;22044;48.298;10.008;2022-11-18T14:26:28;1.10;;;1.00;;
35961;SDS011;22044;48.298;10.008;2022-11-18T14:29:15;3.37;;;1.47;;
35961;SDS011;22044;48.298;10.008;2022-11-18T14:32:12;1.63;;;0.83;;
35961;SDS011;22044;48.298;10.008;2022-11-18T14:34:59;5.97;;;1.40;;
35961;SDS011;22044;48.298;10.008;2022-11-18T14:37:45;1.37;;;1.10;;
35961;SDS011;22044;48.298;10.008;2022-11-18T14:40:31;4.70;;;0.97;;
35961;SDS011;22044;48.298;10.008;2022-11-18T14:43:16;0.90;;;0.90;;
35961;SDS011;22044;48.298;10.008;2022-11-18T14:46:03;1.30;;;1.20;;
35961;SDS011;22044;48.298;10.008;2022-11-18T14:48:50;1.90;;;1.33;;
35961;SDS011;22044;48.298;10.008;2022-11-18T14:51:37;2.47;;;1.67;;
35961;SDS011;22044;48.298;10.008;2022-11-18T14:54:23;5.13;;;2.57;;
35961;SDS011;22044;48.298;10.008;2022-11-18T14:57:11;2.33;;;1.57;;
35961;SDS011;22044;48.298;10.008;2022-11-18T14:59:59;2.43;;;1.20;;
35961;SDS011;22044;48.298;10.008;2022-11-18T15:02:44;3.57;;;2.40;;
35961;SDS011;22044;48.298;10.008;2022-11-18T15:05:30;1.23;;;1.10;;
35961;SDS011;22044;48.298;10.008;2022-11-18T15:08:17;2.97;;;1.20;;
35961;SDS011;22044;48.298;10.008;2022-11-18T15:11:02;1.43;;;1.00;;
35961;SDS011;22044;48.298;10.008;2022-11-18T15:13:48;3.10;;;1.20;;
35961;SDS011;22044;48.298;10.008;2022-11-18T15:16:34;1.10;;;1.00;;
35961;SDS011;22044;48.298;10.008;2022-11-18T15:19:19;2.57;;;1.37;;
35961;SDS011;22044;48.298;10.008;2022-11-18T15:22:04;1.50;;;1.20;;
35961;SDS011;22044;48.298;10.008;2022-11-18T15:24:51;1.23;;;1.10;;
35961;SDS011;22044;48.298;10.008;2022-11-18T15:27:36;1.80;;;1.20;;
35961;SDS011;22044;48.298;10.008;2022-11-18T15:30:22;1.70;;;1.33;;
35961;SDS011;22044;48.298;10.008;2022-11-18T15:33:08;1.40;;;1.30;;
35961;SDS011;22044;48.298;10.008;2022-11-18T15:35:53;2.70;;;1.47;;
35961;SDS011;22044;48.298;10.008;2022-11-18T15:38:39;2.70;;;1.40;;
35961;SDS011;22044;48.298;10.008;2022-11-18T15:41:26;1.40;;;1.20;;
35961;SDS011;22044;48.298;10.008;2022-11-18T15:44:13;2.77;;;1.20;;
35961;SDS011;22044;48.298;10.008;2022-11-18T15:46:59;1.53;;;1.43;;
35961;SDS011;22044;48.298;10.008;2022-11-18T15:49:44;2.33;;;1.60;;
35961;SDS011;22044;48.298;10.008;2022-11-18T15:52:30;5.53;;;1.80;;
35961;SDS011;22044;48.298;10.008;2022-11-18T15:55:15;5.43;;;2.00;;
35961;SDS011;22044;48.298;10.008;2022-11-18T15:58:02;4.07;;;2.00;;
35961;SDS011;22044;48.298;10.008;2022-11-18T16:00:48;2.00;;;1.30;;
35961;SDS011;22044;48.298;10.008;2022-11-18T16:03:33;3.20;;;1.10;;
35961;SDS011;22044;48.298;10.008;2022-11-18T16:06:19;2.67;;;1.43;;
35961;SDS011;22044;48.298;10.008;2022-11-18T16:09:05;1.80;;;1.60;;
35961;SDS011;22044;48.298;10.008;2022-11-18T16:11:51;2.37;;;1.50;;
35961;SDS011;22044;48.298;10.008;2022-11-18T16:14:56;2.53;;;1.50;;
35961;SDS011;22044;48.298;10.008;2022-11-18T16:17:57;2.80;;;1.67;;
35961;SDS011;22044;48.298;10.008;2022-11-18T16:20:42;2.57;;;1.67;;
35961;SDS011;22044;48.298;10.008;2022-11-18T16:23:28;2.20;;;1.60;;
35961;SDS011;22044;48.298;10.008;2022-11-18T16:26:14;4.33;;;1.80;;
35961;SDS011;22044;48.298;10.008;2022-11-18T16:29:03;2.80;;;2.13;;
35961;SDS011;22044;48.298;10.008;2022-11-18T16:31:51;3.30;;;2.10;;
35961;SDS011;22044;48.298;10.008;2022-11-18T16:34:37;2.60;;;2.00;;
35961;SDS011;22044;48.298;10.008;2022-11-18T16:37:23;1.63;;;1.53;;
35961;SDS011;22044;48.298;10.008;2022-11-18T16:40:09;3.03;;;1.80;;
35961;SDS011;22044;48.298;10.008;2022-11-18T16:42:55;2.80;;;1.80;;
35961;SDS011;22044;48.298;10.008;2022-11-18T16:45:48;2.30;;;1.80;;
35961;SDS011;22044;48.298;10.008;2022-11-18T16:48:36;3.77;;;2.37;;
35961;SDS011;22044;48.298;10.008;2022-11-18T16:51:22;4.47;;;2.97;;
35961;SDS011;22044;48.298;10.008;2022-11-18T16:54:13;4.57;;;2.60;;